Time;durP1;ratioP1;P1;durP2;ratioP2;P2;SDS_P1;SDS_P2;PMS_P1;PMS_P2;Temp;Humidity;BMP_temperature;BMP_pressure;BME280_temperature;BME280_humidity;BME280_pressure;Samples;Min_cycle;Max_cycle;Signal;HPM_P1;HPM_P2
2023/05/26 00:00:09;;;;;;;17.25;13.13;;;;;;;;;;5040887;28;20116;-86
2023/05/26 00:05:40;;;;;;;17.10;13.65;;;;;;;;;;5059271;28;20112;-85
2023/05/26 00:08:07;;;;;;;17.48;13.48;;;;;;;;;;5060494;28;20040;-85
2023/05/26 00:10:33;;;;;;;16.63;13.88;;;;;;;;;;5059568;28;20104;-85
2023/05/26 00:12:59;;;;;;;16.80;14.25;;;;;;;;;;5060507;28;20490;-85
2023/05/26 00:15:25;;;;;;;18.23;14.77;;;;;;;;;;5060336;28;20063;-85
2023/05/26 00:20:55;;;;;;;21.15;13.82;;;;;;;;;;5060667;28;20031;-85
2023/05/26 00:23:21;;;;;;;17.77;13.68;;;;;;;;;;5059905;28;20407;-85
2023/05/26 00:25:49;;;;;;;18.70;14.05;;;;;;;;;;5060594;28;20025;-85
2023/05/26 00:28:15;;;;;;;16.20;13.65;;;;;;;;;;5059296;28;20116;-85
2023/05/26 00:30:41;;;;;;;16.52;13.25;;;;;;;;;;5060455;28;20104;-85
2023/05/26 00:33:25;;;;;;;18.60;13.98;;;;;;;;;;5060330;28;20021;-85
2023/05/26 00:35:51;;;;;;;17.25;13.65;;;;;;;;;;5060247;28;20025;-85
2023/05/26 00:38:18;;;;;;;15.32;13.38;;;;;;;;;;5058969;28;20025;-85
2023/05/26 00:40:44;;;;;;;18.15;13.93;;;;;;;;;;5060301;28;20021;-85
2023/05/26 00:43:10;;;;;;;16.13;12.88;;;;;;;;;;5040538;28;20021;-85
2023/05/26 00:45:36;;;;;;;22.92;13.90;;;;;;;;;;5039856;28;20029;-85
2023/05/26 00:48:39;;;;;;;19.27;13.23;;;;;;;;;;5038441;28;20444;-85
2023/05/26 00:51:06;;;;;;;15.95;13.05;;;;;;;;;;5039939;28;20032;-85
2023/05/26 00:53:32;;;;;;;18.65;13.80;;;;;;;;;;5040076;28;20042;-84
2023/05/26 00:55:58;;;;;;;15.68;13.27;;;;;;;;;;5038881;28;20331;-85
2023/05/26 00:58:24;;;;;;;19.15;13.30;;;;;;;;;;5038857;28;20300;-86
2023/05/26 01:00:50;;;;;;;18.63;13.73;;;;;;;;;;5050308;28;20037;-85
2023/05/26 01:03:18;;;;;;;19.23;14.18;;;;;;;;;;5059937;28;20021;-85
2023/05/26 01:05:44;;;;;;;19.27;13.80;;;;;;;;;;5059952;28;20087;-85
2023/05/26 01:08:10;;;;;;;21.80;14.18;;;;;;;;;;5059689;28;20052;-85
2023/05/26 01:10:36;;;;;;;16.15;12.95;;;;;;;;;;5059558;28;20025;-84
2023/05/26 01:13:02;;;;;;;17.13;12.48;;;;;;;;;;5059622;28;20111;-85
2023/05/26 01:15:35;;;;;;;17.52;12.57;;;;;;;;;;5059327;28;20099;-85
2023/05/26 01:18:06;;;;;;;18.77;13.05;;;;;;;;;;5059586;28;20051;-85
2023/05/26 01:20:32;;;;;;;15.25;11.93;;;;;;;;;;5059442;28;20312;-85
2023/05/26 01:23:07;;;;;;;20.27;12.45;;;;;;;;;;5059307;28;20036;-85
2023/05/26 01:25:49;;;;;;;14.82;12.50;;;;;;;;;;5059403;28;20041;-85
2023/05/26 01:28:16;;;;;;;20.92;13.13;;;;;;;;;;5059468;28;20029;-86
2023/05/26 01:30:43;;;;;;;17.15;12.10;;;;;;;;;;5059286;28;20342;-84
2023/05/26 01:33:09;;;;;;;21.30;11.75;;;;;;;;;;5059036;28;20040;-85
2023/05/26 01:35:35;;;;;;;19.73;12.98;;;;;;;;;;5058687;28;20029;-84
2023/05/26 01:38:02;;;;;;;16.05;12.13;;;;;;;;;;5058640;28;20116;-85
2023/05/26 01:40:29;;;;;;;15.63;12.60;;;;;;;;;;5058710;28;20419;-84
2023/05/26 01:42:55;;;;;;;17.05;12.70;;;;;;;;;;5049678;28;20439;-84
2023/05/26 01:45:24;;;;;;;17.60;12.98;;;;;;;;;;5038743;28;20030;-84
2023/05/26 01:47:52;;;;;;;18.42;13.02;;;;;;;;;;5039044;28;20139;-84
2023/05/26 01:50:22;;;;;;;19.08;13.25;;;;;;;;;;5038702;28;20320;-85
2023/05/26 01:52:49;;;;;;;17.10;12.63;;;;;;;;;;5038665;28;20466;-84
2023/05/26 01:55:15;;;;;;;14.82;11.98;;;;;;;;;;5040336;28;20360;-85
2023/05/26 01:57:42;;;;;;;14.20;12.27;;;;;;;;;;5038989;28;20021;-85
2023/05/26 02:00:12;;;;;;;16.70;12.10;;;;;;;;;;5037764;28;20026;-86
2023/05/26 02:02:38;;;;;;;15.20;12.02;;;;;;;;;;5055771;28;20036;-85
2023/05/26 02:05:04;;;;;;;16.13;13.18;;;;;;;;;;5058730;28;20025;-86
2023/05/26 02:07:30;;;;;;;16.33;12.07;;;;;;;;;;5058269;28;20415;-85
2023/05/26 02:09:56;;;;;;;22.08;13.45;;;;;;;;;;5058628;28;20028;-85
2023/05/26 02:12:22;;;;;;;14.35;11.95;;;;;;;;;;5057457;28;20478;-86
2023/05/26 02:14:48;;;;;;;17.27;12.75;;;;;;;;;;5058595;28;20315;-85
2023/05/26 02:17:17;;;;;;;14.18;12.65;;;;;;;;;;5058092;28;20323;-85
2023/05/26 02:19:43;;;;;;;16.27;12.55;;;;;;;;;;5056496;28;20119;-85
2023/05/26 02:22:09;;;;;;;13.43;11.88;;;;;;;;;;5058384;28;20020;-84
2023/05/26 02:24:35;;;;;;;17.58;12.25;;;;;;;;;;5057656;28;20020;-84
2023/05/26 02:27:01;;;;;;;17.83;12.65;;;;;;;;;;5057606;28;20136;-85
2023/05/26 02:29:27;;;;;;;16.05;12.23;;;;;;;;;;5056927;28;20068;-84
2023/05/26 02:31:53;;;;;;;16.15;11.75;;;;;;;;;;5056836;28;20036;-85
2023/05/26 02:34:19;;;;;;;14.25;11.73;;;;;;;;;;5057809;28;20035;-84
2023/05/26 02:36:45;;;;;;;15.25;12.57;;;;;;;;;;5058029;28;20036;-85
2023/05/26 02:39:11;;;;;;;15.68;12.20;;;;;;;;;;5045785;28;20427;-85
2023/05/26 02:41:37;;;;;;;17.33;12.50;;;;;;;;;;5037902;28;20025;-84
2023/05/26 02:44:03;;;;;;;18.88;12.63;;;;;;;;;;5037839;28;20017;-85
2023/05/26 02:46:29;;;;;;;17.08;13.27;;;;;;;;;;5037889;28;20029;-84
2023/05/26 02:48:55;;;;;;;15.60;12.75;;;;;;;;;;5043024;28;20033;-84
2023/05/26 02:51:21;;;;;;;16.73;13.65;;;;;;;;;;5057655;28;20138;-85
2023/05/26 02:53:47;;;;;;;17.92;13.75;;;;;;;;;;5057514;28;20162;-85
2023/05/26 02:56:13;;;;;;;17.13;14.02;;;;;;;;;;5057421;28;20116;-84
2023/05/26 02:58:39;;;;;;;23.58;13.82;;;;;;;;;;5057850;28;20044;-84
2023/05/26 03:01:06;;;;;;;20.50;14.18;;;;;;;;;;5057765;28;20025;-85
2023/05/26 03:03:32;;;;;;;18.95;14.60;;;;;;;;;;5057415;28;20024;-85
2023/05/26 03:05:59;;;;;;;22.13;14.82;;;;;;;;;;5057709;28;20112;-85
2023/05/26 03:08:25;;;;;;;22.52;17.95;;;;;;;;;;5057083;28;20033;-84
2023/05/26 03:10:51;;;;;;;21.15;16.15;;;;;;;;;;5057141;28;20159;-85
2023/05/26 03:13:17;;;;;;;17.00;13.32;;;;;;;;;;5057623;28;20029;-85
2023/05/26 03:15:44;;;;;;;18.75;14.38;;;;;;;;;;5043780;28;20025;-85
2023/05/26 03:18:10;;;;;;;18.48;12.95;;;;;;;;;;5037333;28;20100;-85
2023/05/26 03:20:36;;;;;;;15.38;12.32;;;;;;;;;;5038898;28;20021;-85
2023/05/26 03:23:02;;;;;;;17.02;13.95;;;;;;;;;;5037509;28;20071;-83
2023/05/26 03:25:29;;;;;;;18.95;13.30;;;;;;;;;;5037952;28;20026;-84
2023/05/26 03:27:55;;;;;;;19.17;14.50;;;;;;;;;;5036414;28;20057;-85
2023/05/26 03:30:21;;;;;;;19.40;13.50;;;;;;;;;;5047784;28;20057;-85
2023/05/26 03:32:47;;;;;;;17.40;12.70;;;;;;;;;;5057279;28;20017;-85
2023/05/26 03:35:13;;;;;;;23.67;13.82;;;;;;;;;;5056299;28;20323;-83
2023/05/26 03:37:39;;;;;;;19.80;13.52;;;;;;;;;;5057157;28;20100;-85
2023/05/26 03:40:06;;;;;;;22.13;14.18;;;;;;;;;;5056538;28;20041;-84
2023/05/26 03:42:32;;;;;;;21.92;15.23;;;;;;;;;;5048550;28;20067;-85
2023/05/26 03:44:58;;;;;;;21.85;15.45;;;;;;;;;;5056179;28;20022;-84
2023/05/26 03:47:24;;;;;;;18.65;13.35;;;;;;;;;;5046294;28;20076;-83
2023/05/26 03:49:51;;;;;;;19.20;13.52;;;;;;;;;;5053534;28;20037;-84
2023/05/26 03:52:17;;;;;;;17.73;13.38;;;;;;;;;;5035880;28;20053;-83
2023/05/26 03:54:43;;;;;;;16.23;13.23;;;;;;;;;;5051614;28;20029;-84
2023/05/26 03:57:09;;;;;;;17.48;12.45;;;;;;;;;;5037089;28;20034;-90
2023/05/26 03:59:35;;;;;;;17.83;12.98;;;;;;;;;;5044532;28;20021;-84
2023/05/26 04:02:36;;;;;;;18.20;12.65;;;;;;;;;;5037230;28;20483;-83
2023/05/26 04:05:02;;;;;;;17.27;13.05;;;;;;;;;;5036849;28;20238;-84
2023/05/26 04:07:28;;;;;;;19.38;13.20;;;;;;;;;;5037258;28;20032;-84
2023/05/26 04:09:54;;;;;;;25.13;13.00;;;;;;;;;;5050509;28;20037;-84
2023/05/26 04:12:23;;;;;;;21.88;13.77;;;;;;;;;;5036333;28;20445;-84
2023/05/26 04:14:49;;;;;;;21.35;13.20;;;;;;;;;;5048700;28;20028;-84
2023/05/26 04:17:22;;;;;;;18.80;14.23;;;;;;;;;;5056624;28;20047;-84
2023/05/26 04:19:48;;;;;;;17.70;13.50;;;;;;;;;;5055837;28;20032;-84
2023/05/26 04:22:14;;;;;;;22.52;13.63;;;;;;;;;;5055904;28;20406;-84
2023/05/26 04:24:41;;;;;;;19.48;14.10;;;;;;;;;;5060280;28;20032;-85
2023/05/26 04:27:07;;;;;;;22.73;13.18;;;;;;;;;;5060392;28;20029;-84
2023/05/26 04:29:34;;;;;;;15.65;13.77;;;;;;;;;;5059995;28;20032;-85
2023/05/26 04:32:00;;;;;;;20.88;14.00;;;;;;;;;;5059014;28;20032;-84
2023/05/26 04:34:45;;;;;;;17.15;13.52;;;;;;;;;;5060080;28;20076;-85
2023/05/26 04:37:11;;;;;;;23.05;14.32;;;;;;;;;;5060179;28;20407;-85
2023/05/26 04:39:37;;;;;;;20.73;13.70;;;;;;;;;;5059363;28;20056;-85
2023/05/26 04:42:03;;;;;;;16.77;13.27;;;;;;;;;;5060109;28;20029;-85
2023/05/26 04:44:31;;;;;;;17.25;13.50;;;;;;;;;;5060153;28;20025;-85
2023/05/26 04:46:57;;;;;;;19.85;14.10;;;;;;;;;;5059967;28;20025;-85
2023/05/26 04:49:23;;;;;;;21.65;14.50;;;;;;;;;;5059047;28;20051;-85
2023/05/26 04:51:56;;;;;;;18.65;13.80;;;;;;;;;;5048013;28;20041;-85
2023/05/26 04:54:23;;;;;;;20.95;14.10;;;;;;;;;;5039279;28;20044;-85
2023/05/26 04:56:49;;;;;;;21.77;13.57;;;;;;;;;;5040106;28;20104;-85
2023/05/26 04:59:17;;;;;;;22.85;14.85;;;;;;;;;;5040101;28;20021;-86
2023/05/26 05:01:44;;;;;;;21.48;14.85;;;;;;;;;;5040175;28;20088;-85
2023/05/26 05:04:28;;;;;;;17.45;14.00;;;;;;;;;;5040053;28;20025;-85
2023/05/26 05:06:55;;;;;;;19.65;14.82;;;;;;;;;;5038799;28;20174;-85
2023/05/26 05:09:21;;;;;;;18.33;14.25;;;;;;;;;;5039672;28;20386;-85
2023/05/26 05:11:47;;;;;;;21.15;14.43;;;;;;;;;;5039637;28;20033;-85
2023/05/26 05:14:13;;;;;;;17.75;13.93;;;;;;;;;;5038721;28;20427;-84
2023/05/26 05:16:41;;;;;;;20.23;14.70;;;;;;;;;;5039447;28;20425;-85
2023/05/26 05:19:07;;;;;;;19.85;15.73;;;;;;;;;;5039661;28;20029;-86
2023/05/26 05:21:33;;;;;;;27.50;15.48;;;;;;;;;;5038329;28;20026;-86
2023/05/26 05:23:59;;;;;;;18.52;14.60;;;;;;;;;;5040426;28;20423;-84
2023/05/26 05:26:25;;;;;;;22.17;14.52;;;;;;;;;;5038128;28;20025;-85
2023/05/26 05:28:52;;;;;;;19.17;14.77;;;;;;;;;;5038149;28;20068;-85
2023/05/26 05:31:18;;;;;;;23.73;15.63;;;;;;;;;;5039566;28;20032;-85
2023/05/26 05:34:21;;;;;;;20.65;15.13;;;;;;;;;;5038129;28;20137;-85
2023/05/26 05:36:47;;;;;;;21.45;14.25;;;;;;;;;;5041598;28;20033;-85
2023/05/26 05:39:13;;;;;;;24.13;15.55;;;;;;;;;;5057817;28;20060;-85
2023/05/26 05:41:39;;;;;;;21.17;15.43;;;;;;;;;;5059254;28;20021;-85
2023/05/26 05:44:05;;;;;;;25.25;16.13;;;;;;;;;;5057865;28;20458;-85
2023/05/26 05:46:31;;;;;;;23.02;15.63;;;;;;;;;;5037974;28;20128;-85
2023/05/26 05:48:57;;;;;;;22.92;16.25;;;;;;;;;;5039107;28;20029;-85
2023/05/26 05:51:23;;;;;;;19.70;15.82;;;;;;;;;;5039217;28;20103;-85
2023/05/26 05:53:49;;;;;;;20.30;15.05;;;;;;;;;;5039406;28;20033;-86
2023/05/26 05:56:16;;;;;;;21.60;15.80;;;;;;;;;;5038923;28;20404;-86
2023/05/26 05:58:42;;;;;;;21.48;15.27;;;;;;;;;;5038706;28;20034;-85
2023/05/26 06:01:08;;;;;;;26.42;16.27;;;;;;;;;;5038588;28;20033;-86
2023/05/26 06:04:26;;;;;;;25.17;16.35;;;;;;;;;;5037698;28;20052;-86
2023/05/26 06:06:52;;;;;;;24.60;15.60;;;;;;;;;;5037490;28;20033;-86
2023/05/26 06:09:18;;;;;;;23.27;16.30;;;;;;;;;;5038901;28;20454;-86
2023/05/26 06:11:44;;;;;;;21.88;16.23;;;;;;;;;;5038816;28;20088;-86
2023/05/26 06:14:10;;;;;;;24.25;16.90;;;;;;;;;;5038771;28;20036;-86
2023/05/26 06:16:36;;;;;;;22.48;17.17;;;;;;;;;;5038613;28;20045;-87
2023/05/26 06:19:02;;;;;;;23.27;17.08;;;;;;;;;;5037193;28;20025;-85
2023/05/26 06:21:28;;;;;;;23.13;16.85;;;;;;;;;;5037156;28;20415;-85
2023/05/26 06:23:54;;;;;;;26.98;17.33;;;;;;;;;;5038507;28;20346;-85
2023/05/26 06:26:21;;;;;;;24.13;18.75;;;;;;;;;;5037179;28;20036;-85
2023/05/26 06:28:47;;;;;;;21.33;17.35;;;;;;;;;;5040817;28;20037;-86
2023/05/26 06:31:13;;;;;;;27.58;18.00;;;;;;;;;;5038382;28;20056;-85
2023/05/26 06:33:39;;;;;;;28.60;19.63;;;;;;;;;;5037111;28;20242;-85
2023/05/26 06:36:05;;;;;;;29.58;17.77;;;;;;;;;;5037994;28;20039;-85
2023/05/26 06:38:31;;;;;;;25.85;18.33;;;;;;;;;;5047925;28;20052;-85
2023/05/26 06:40:57;;;;;;;23.98;18.17;;;;;;;;;;5055995;28;20055;-85
2023/05/26 06:43:23;;;;;;;28.83;18.80;;;;;;;;;;5038084;28;20052;-85
2023/05/26 06:45:49;;;;;;;24.58;18.90;;;;;;;;;;5037753;28;20033;-85
2023/05/26 06:48:15;;;;;;;25.83;18.52;;;;;;;;;;5037529;28;20021;-85
2023/05/26 06:50:41;;;;;;;30.80;18.98;;;;;;;;;;5037923;28;20144;-85
2023/05/26 06:53:07;;;;;;;24.92;18.58;;;;;;;;;;5037795;28;20025;-86
2023/05/26 06:55:33;;;;;;;25.15;18.98;;;;;;;;;;5037709;28;20072;-86
2023/05/26 06:57:59;;;;;;;28.00;19.02;;;;;;;;;;5037908;28;20486;-86
2023/05/26 07:00:25;;;;;;;26.40;19.60;;;;;;;;;;5038589;28;20415;-86
2023/05/26 07:02:52;;;;;;;24.42;18.20;;;;;;;;;;5043900;28;20017;-84
2023/05/26 07:05:18;;;;;;;26.92;18.90;;;;;;;;;;5037966;28;20030;-85
2023/05/26 07:07:44;;;;;;;25.65;18.30;;;;;;;;;;5045709;28;20120;-84
2023/05/26 07:10:10;;;;;;;28.63;18.05;;;;;;;;;;5057075;28;20021;-85
2023/05/26 07:12:36;;;;;;;24.95;18.52;;;;;;;;;;5052579;28;20323;-85
2023/05/26 07:15:02;;;;;;;23.80;17.60;;;;;;;;;;5053090;28;20399;-86
2023/05/26 07:17:28;;;;;;;27.58;18.30;;;;;;;;;;5047033;28;20040;-84
2023/05/26 07:20:31;;;;;;;26.65;17.83;;;;;;;;;;5055625;28;20296;-86
2023/05/26 07:22:57;;;;;;;29.60;18.38;;;;;;;;;;5051101;28;20029;-85
2023/05/26 07:25:24;;;;;;;22.40;17.48;;;;;;;;;;5041123;28;20108;-85
2023/05/26 07:27:50;;;;;;;26.75;17.83;;;;;;;;;;5037637;28;20021;-85
2023/05/26 07:30:16;;;;;;;29.52;18.38;;;;;;;;;;5048066;28;20023;-85
2023/05/26 07:33:16;;;;;;;25.20;18.08;;;;;;;;;;5036868;28;20238;-85
2023/05/26 07:35:42;;;;;;;21.70;17.52;;;;;;;;;;5054226;28;20298;-84
2023/05/26 07:38:08;;;;;;;26.42;19.00;;;;;;;;;;5057384;28;20056;-85
2023/05/26 07:40:35;;;;;;;26.20;18.98;;;;;;;;;;5056932;28;20114;-85
2023/05/26 07:43:02;;;;;;;25.63;18.00;;;;;;;;;;5056095;28;20035;-85
2023/05/26 07:45:28;;;;;;;28.77;19.25;;;;;;;;;;5057034;28;20041;-84
2023/05/26 07:47:54;;;;;;;27.38;18.98;;;;;;;;;;5040628;28;20040;-85
2023/05/26 07:50:20;;;;;;;27.20;18.15;;;;;;;;;;5044811;28;20021;-85
2023/05/26 07:52:46;;;;;;;25.77;18.33;;;;;;;;;;5056520;28;20115;-85
2023/05/26 07:55:13;;;;;;;24.63;19.77;;;;;;;;;;5055404;28;20108;-84
2023/05/26 07:57:39;;;;;;;29.42;18.75;;;;;;;;;;5049641;28;20419;-83
2023/05/26 08:00:06;;;;;;;29.33;20.35;;;;;;;;;;5059543;28;20314;-84
2023/05/26 08:02:32;;;;;;;29.45;19.30;;;;;;;;;;5049744;28;20427;-85
2023/05/26 08:04:58;;;;;;;26.98;19.95;;;;;;;;;;5040791;28;20075;-85
2023/05/26 08:07:24;;;;;;;27.23;19.67;;;;;;;;;;5040402;28;20075;-84
2023/05/26 08:09:52;;;;;;;29.55;18.27;;;;;;;;;;5039876;28;20136;-84
2023/05/26 08:12:18;;;;;;;25.55;19.65;;;;;;;;;;5040568;28;20048;-84
2023/05/26 08:14:44;;;;;;;28.75;19.27;;;;;;;;;;5040467;28;20025;-84
2023/05/26 08:17:10;;;;;;;25.98;19.05;;;;;;;;;;5040599;28;20021;-84
2023/05/26 08:19:36;;;;;;;27.48;20.25;;;;;;;;;;5040126;28;20033;-84
2023/05/26 08:22:02;;;;;;;28.05;21.15;;;;;;;;;;5038911;28;20034;-84
2023/05/26 08:24:28;;;;;;;29.25;19.95;;;;;;;;;;5039447;28;20434;-84
2023/05/26 08:26:54;;;;;;;31.75;21.98;;;;;;;;;;5039272;28;20067;-84
2023/05/26 08:29:22;;;;;;;27.42;19.33;;;;;;;;;;5040398;28;20025;-84
2023/05/26 08:31:48;;;;;;;27.90;19.52;;;;;;;;;;5039886;28;20068;-84
2023/05/26 08:34:14;;;;;;;27.17;19.08;;;;;;;;;;5040180;28;20037;-84
2023/05/26 08:36:40;;;;;;;21.50;16.05;;;;;;;;;;5039861;28;20408;-83
2023/05/26 08:39:06;;;;;;;21.50;15.18;;;;;;;;;;5055264;28;20033;-84
2023/05/26 08:41:37;;;;;;;23.17;16.13;;;;;;;;;;5054168;28;20029;-83
2023/05/26 08:44:05;;;;;;;20.70;15.52;;;;;;;;;;5044700;28;20037;-85
2023/05/26 08:46:32;;;;;;;22.15;16.60;;;;;;;;;;5044206;28;20052;-84
2023/05/26 08:48:59;;;;;;;18.83;15.57;;;;;;;;;;5038815;28;20063;-83
2023/05/26 08:51:25;;;;;;;22.42;14.10;;;;;;;;;;5040233;28;20421;-85
2023/05/26 08:53:51;;;;;;;19.90;15.20;;;;;;;;;;5054982;28;20032;-84
2023/05/26 08:56:17;;;;;;;20.77;16.02;;;;;;;;;;5059605;28;20414;-85
2023/05/26 08:58:43;;;;;;;20.88;15.77;;;;;;;;;;5058677;28;20032;-86
2023/05/26 09:01:10;;;;;;;23.45;14.60;;;;;;;;;;5059672;28;20414;-85
2023/05/26 09:03:36;;;;;;;18.73;14.85;;;;;;;;;;5059639;28;20079;-85
2023/05/26 09:06:02;;;;;;;24.60;16.75;;;;;;;;;;5059589;28;20021;-84
2023/05/26 09:08:29;;;;;;;25.92;16.05;;;;;;;;;;5059160;28;20032;-84
2023/05/26 09:10:55;;;;;;;21.15;16.30;;;;;;;;;;5059520;28;20366;-84
2023/05/26 09:13:23;;;;;;;19.27;16.35;;;;;;;;;;5058621;28;20029;-88
2023/05/26 09:15:55;;;;;;;19.33;14.73;;;;;;;;;;5059441;28;20023;-85
2023/05/26 09:18:21;;;;;;;20.70;15.55;;;;;;;;;;5059252;28;20441;-85
2023/05/26 09:20:48;;;;;;;20.92;16.08;;;;;;;;;;5058205;28;20025;-85
2023/05/26 09:23:15;;;;;;;22.80;16.60;;;;;;;;;;5058433;28;20068;-85
2023/05/26 09:25:41;;;;;;;19.67;14.43;;;;;;;;;;5058278;28;20021;-85
2023/05/26 09:28:09;;;;;;;22.88;16.42;;;;;;;;;;5058081;28;20323;-84
2023/05/26 09:30:39;;;;;;;21.27;16.08;;;;;;;;;;5058893;28;20029;-84
2023/05/26 09:33:10;;;;;;;23.13;15.18;;;;;;;;;;5057990;28;20441;-84
2023/05/26 09:35:36;;;;;;;20.92;15.20;;;;;;;;;;5059094;28;20021;-85
2023/05/26 09:38:06;;;;;;;24.75;16.42;;;;;;;;;;5057831;28;20041;-85
2023/05/26 09:40:32;;;;;;;23.38;16.67;;;;;;;;;;5057848;28;20043;-85
2023/05/26 09:42:58;;;;;;;20.40;14.27;;;;;;;;;;5058844;28;20104;-86
2023/05/26 09:45:25;;;;;;;16.10;11.63;;;;;;;;;;5058620;28;20017;-84
2023/05/26 09:48:11;;;;;;;16.50;12.57;;;;;;;;;;5058903;28;20096;-87
2023/05/26 09:50:38;;;;;;;15.43;11.90;;;;;;;;;;5058569;28;20423;-84
2023/05/26 09:53:05;;;;;;;20.00;12.38;;;;;;;;;;5058512;28;20056;-86
2023/05/26 09:55:31;;;;;;;16.83;12.02;;;;;;;;;;5057765;28;20143;-83
2023/05/26 09:58:05;;;;;;;20.85;12.02;;;;;;;;;;5058427;28;20416;-85
2023/05/26 10:00:32;;;;;;;19.00;12.52;;;;;;;;;;5058534;28;20029;-85
2023/05/26 10:02:58;;;;;;;20.75;14.35;;;;;;;;;;5058354;28;20044;-83
2023/05/26 10:05:24;;;;;;;18.90;12.68;;;;;;;;;;5057248;28;20028;-83
2023/05/26 10:07:52;;;;;;;12.13;9.63;;;;;;;;;;5058254;28;20025;-84
2023/05/26 10:10:18;;;;;;;15.20;11.15;;;;;;;;;;5058240;28;20314;-83
2023/05/26 10:12:47;;;;;;;15.02;11.63;;;;;;;;;;5058236;28;20083;-84
2023/05/26 10:15:13;;;;;;;16.35;9.15;;;;;;;;;;5058058;28;20032;-80
2023/05/26 10:17:39;;;;;;;14.20;9.00;;;;;;;;;;5058135;28;20025;-91
2023/05/26 10:20:06;;;;;;;10.63;7.90;;;;;;;;;;5057982;28;20053;-83
2023/05/26 10:22:38;;;;;;;13.55;7.93;;;;;;;;;;5058745;28;20029;-85
2023/05/26 10:25:07;;;;;;;14.52;8.77;;;;;;;;;;5058002;28;20053;-83
2023/05/26 10:27:51;;;;;;;13.70;8.93;;;;;;;;;;5057112;28;20124;-83
2023/05/26 10:30:19;;;;;;;14.27;9.30;;;;;;;;;;5057307;28;20025;-84
2023/05/26 10:32:46;;;;;;;10.43;9.00;;;;;;;;;;5057352;28;20041;-83
2023/05/26 10:35:21;;;;;;;13.27;8.90;;;;;;;;;;5057960;28;20438;-84
2023/05/26 10:38:02;;;;;;;14.38;8.70;;;;;;;;;;5057668;28;20033;-84
2023/05/26 10:40:40;;;;;;;12.57;10.40;;;;;;;;;;5057511;28;20044;-85
2023/05/26 10:43:14;;;;;;;13.75;9.07;;;;;;;;;;5056495;28;20043;-84
2023/05/26 10:45:45;;;;;;;14.30;10.50;;;;;;;;;;5056562;28;20032;-83
2023/05/26 10:48:11;;;;;;;17.13;9.57;;;;;;;;;;5056585;28;20473;-84
2023/05/26 10:50:55;;;;;;;12.48;9.88;;;;;;;;;;5057469;28;20025;-83
2023/05/26 10:53:22;;;;;;;11.95;9.52;;;;;;;;;;5057739;28;20090;-82
2023/05/26 10:56:08;;;;;;;12.98;8.60;;;;;;;;;;5057584;28;20025;-83
2023/05/26 10:58:57;;;;;;;10.52;8.25;;;;;;;;;;5057344;28;20091;-84
2023/05/26 11:01:26;;;;;;;13.02;7.70;;;;;;;;;;5057519;28;20017;-84
2023/05/26 11:04:05;;;;;;;9.65;7.80;;;;;;;;;;5056632;28;20025;-83
2023/05/26 11:06:48;;;;;;;13.18;7.22;;;;;;;;;;5044246;28;20137;-84
2023/05/26 11:09:15;;;;;;;10.70;8.88;;;;;;;;;;5052865;28;20139;-84
2023/05/26 11:12:02;;;;;;;12.93;8.18;;;;;;;;;;5056940;28;20028;-83
2023/05/26 11:14:29;;;;;;;9.20;6.90;;;;;;;;;;5056335;28;20041;-83
2023/05/26 11:16:59;;;;;;;12.93;7.88;;;;;;;;;;5055913;28;20041;-84
2023/05/26 11:19:28;;;;;;;9.07;6.60;;;;;;;;;;5055176;28;20056;-83
2023/05/26 11:21:55;;;;;;;12.50;7.97;;;;;;;;;;5039283;28;20044;-83
2023/05/26 11:24:22;;;;;;;16.00;8.20;;;;;;;;;;5038971;28;20026;-84
2023/05/26 11:26:49;;;;;;;12.80;7.82;;;;;;;;;;5037543;28;20370;-83
2023/05/26 11:29:15;;;;;;;12.10;7.00;;;;;;;;;;5053153;28;20048;-83
2023/05/26 11:31:46;;;;;;;8.05;6.53;;;;;;;;;;5041444;28;20117;-83
2023/05/26 11:34:12;;;;;;;7.78;6.88;;;;;;;;;;5039967;28;20104;-83
2023/05/26 11:36:39;;;;;;;9.18;7.38;;;;;;;;;;5051278;28;20025;-84
2023/05/26 11:39:05;;;;;;;10.40;7.65;;;;;;;;;;5059531;28;20136;-84
2023/05/26 11:41:31;;;;;;;10.77;7.70;;;;;;;;;;5060641;28;20028;-84
2023/05/26 11:43:57;;;;;;;12.73;7.85;;;;;;;;;;5041121;28;20104;-83
2023/05/26 11:46:26;;;;;;;11.10;7.95;;;;;;;;;;5040968;28;20026;-84
2023/05/26 11:48:52;;;;;;;13.88;7.13;;;;;;;;;;5040989;28;20040;-83
2023/05/26 11:51:22;;;;;;;6.85;5.53;;;;;;;;;;5039828;28;20033;-83
2023/05/26 11:53:52;;;;;;;8.63;6.00;;;;;;;;;;5059756;28;20094;-83
2023/05/26 11:56:18;;;;;;;8.32;6.53;;;;;;;;;;5040581;28;20034;-84
2023/05/26 11:58:45;;;;;;;9.77;6.53;;;;;;;;;;5040670;28;20021;-83
2023/05/26 12:01:12;;;;;;;11.05;6.45;;;;;;;;;;5040652;28;20033;-84
2023/05/26 12:03:44;;;;;;;7.43;6.30;;;;;;;;;;5040707;28;20032;-84
2023/05/26 12:06:17;;;;;;;8.52;6.22;;;;;;;;;;5040536;28;20026;-83
2023/05/26 12:09:03;;;;;;;7.82;6.32;;;;;;;;;;5048797;28;20048;-84
2023/05/26 12:11:29;;;;;;;11.30;6.40;;;;;;;;;;5055414;28;20036;-83
2023/05/26 12:14:03;;;;;;;9.77;6.45;;;;;;;;;;5060764;28;20048;-84
2023/05/26 12:16:33;;;;;;;7.15;6.40;;;;;;;;;;5060228;28;20322;-83
2023/05/26 12:19:02;;;;;;;9.38;6.50;;;;;;;;;;5060192;28;20024;-83
2023/05/26 12:21:28;;;;;;;7.93;6.55;;;;;;;;;;5060311;28;20087;-84
2023/05/26 12:23:55;;;;;;;10.07;6.55;;;;;;;;;;5060201;28;20026;-83
2023/05/26 12:26:22;;;;;;;9.98;7.10;;;;;;;;;;5060094;28;20033;-83
2023/05/26 12:29:05;;;;;;;10.88;7.47;;;;;;;;;;5060050;28;20067;-83
2023/05/26 12:31:45;;;;;;;9.07;7.05;;;;;;;;;;5059862;28;20151;-83
2023/05/26 12:34:14;;;;;;;9.45;5.60;;;;;;;;;;5058887;28;20059;-83
2023/05/26 12:36:41;;;;;;;10.93;6.18;;;;;;;;;;5056290;28;20108;-83
2023/05/26 12:39:07;;;;;;;9.57;6.80;;;;;;;;;;5058893;28;20049;-84
2023/05/26 12:41:35;;;;;;;12.43;7.18;;;;;;;;;;5059824;28;20059;-84
2023/05/26 12:44:01;;;;;;;11.02;7.10;;;;;;;;;;5059094;28;20032;-83
2023/05/26 12:46:28;;;;;;;9.45;7.40;;;;;;;;;;5059604;28;20311;-83
2023/05/26 12:48:57;;;;;;;11.25;6.68;;;;;;;;;;5055149;28;20147;-84
2023/05/26 12:51:23;;;;;;;10.25;7.07;;;;;;;;;;5042455;28;20076;-84
2023/05/26 12:53:51;;;;;;;8.18;7.18;;;;;;;;;;5039032;28;20034;-84
2023/05/26 12:56:18;;;;;;;8.80;6.90;;;;;;;;;;5039521;28;20052;-84
2023/05/26 12:58:44;;;;;;;9.55;7.65;;;;;;;;;;5039722;28;20022;-84
2023/05/26 13:01:11;;;;;;;8.32;6.63;;;;;;;;;;5038584;28;20014;-83
2023/05/26 13:03:38;;;;;;;7.75;6.07;;;;;;;;;;5039556;28;20017;-83
2023/05/26 13:06:05;;;;;;;10.38;7.22;;;;;;;;;;5038702;28;20037;-83
2023/05/26 13:08:32;;;;;;;10.90;7.57;;;;;;;;;;5039468;28;20104;-83
2023/05/26 13:10:58;;;;;;;12.07;7.35;;;;;;;;;;5039370;28;20371;-83
2023/05/26 13:13:24;;;;;;;10.27;7.18;;;;;;;;;;5039308;28;20056;-84
2023/05/26 13:15:50;;;;;;;11.07;7.43;;;;;;;;;;5039206;28;20033;-82
2023/05/26 13:18:20;;;;;;;9.80;7.18;;;;;;;;;;5038171;28;20071;-85
2023/05/26 13:20:46;;;;;;;9.20;7.25;;;;;;;;;;5039285;28;20021;-84
2023/05/26 13:23:14;;;;;;;13.43;7.40;;;;;;;;;;5038378;28;20049;-84
2023/05/26 13:25:40;;;;;;;12.35;7.05;;;;;;;;;;5040730;28;20029;-87
2023/05/26 13:28:06;;;;;;;13.10;7.60;;;;;;;;;;5048402;28;20435;-83
2023/05/26 13:30:33;;;;;;;10.57;7.38;;;;;;;;;;5039214;28;20357;-83
2023/05/26 13:33:00;;;;;;;9.77;6.78;;;;;;;;;;5055505;28;20032;-83
2023/05/26 13:35:26;;;;;;;9.68;7.13;;;;;;;;;;5054372;28;20069;-84
2023/05/26 13:37:52;;;;;;;13.82;6.43;;;;;;;;;;5055102;28;20084;-84
2023/05/26 13:40:22;;;;;;;11.25;6.63;;;;;;;;;;5038654;28;20068;-84
2023/05/26 13:42:49;;;;;;;8.13;6.60;;;;;;;;;;5037915;28;20025;-84
2023/05/26 13:45:15;;;;;;;7.97;6.25;;;;;;;;;;5037838;28;20033;-83
2023/05/26 13:47:42;;;;;;;10.73;6.70;;;;;;;;;;5038754;28;20466;-83
2023/05/26 13:50:08;;;;;;;13.13;6.55;;;;;;;;;;5056857;28;20326;-83
2023/05/26 13:52:35;;;;;;;8.55;6.20;;;;;;;;;;5058415;28;20029;-83
2023/05/26 13:55:01;;;;;;;10.07;6.50;;;;;;;;;;5057831;28;20100;-83
2023/05/26 13:57:29;;;;;;;6.78;5.90;;;;;;;;;;5057946;28;20025;-84
2023/05/26 13:59:55;;;;;;;8.68;6.43;;;;;;;;;;5058672;28;20033;-82
2023/05/26 14:02:21;;;;;;;9.88;6.18;;;;;;;;;;5058236;28;20025;-83
2023/05/26 14:04:47;;;;;;;8.40;6.63;;;;;;;;;;5058218;28;20040;-83
2023/05/26 14:07:13;;;;;;;8.70;5.47;;;;;;;;;;5058130;28;20033;-83
2023/05/26 14:09:39;;;;;;;11.65;6.53;;;;;;;;;;5058249;28;20055;-83
2023/05/26 14:12:06;;;;;;;7.90;5.82;;;;;;;;;;5057097;28;20411;-82
2023/05/26 14:14:32;;;;;;;8.82;6.00;;;;;;;;;;5057775;28;20048;-83
2023/05/26 14:16:59;;;;;;;8.32;6.20;;;;;;;;;;5057987;28;20075;-83
2023/05/26 14:19:25;;;;;;;6.80;5.90;;;;;;;;;;5057971;28;20365;-83
2023/05/26 14:21:53;;;;;;;8.82;5.72;;;;;;;;;;5056958;28;20020;-83
2023/05/26 14:24:20;;;;;;;8.20;5.97;;;;;;;;;;5057910;28;20119;-83
2023/05/26 14:26:49;;;;;;;10.02;6.10;;;;;;;;;;5057983;28;20330;-83
2023/05/26 14:29:15;;;;;;;10.70;6.13;;;;;;;;;;5057915;28;20358;-83
2023/05/26 14:31:41;;;;;;;10.20;5.68;;;;;;;;;;5057872;28;20032;-83
2023/05/26 14:34:07;;;;;;;10.52;5.97;;;;;;;;;;5056473;28;20028;-81